Time;durP1;ratioP1;P1;durP2;ratioP2;P2;SDS_P1;SDS_P2;PMS_P1;PMS_P2;Temp;Humidity;BMP_temperature;BMP_pressure;BME280_temperature;BME280_humidity;BME280_pressure;Samples;Min_cycle;Max_cycle;Signal;HPM_P1;HPM_P2
2022/12/02 00:00:04;;;;;;;25.75;15.93;;;;;;;;;;518525;28;1712;-61
2022/12/02 00:00:25;;;;;;;25.23;15.80;;;;;;;;;;519047;28;1543;-62
2022/12/02 00:00:42;;;;;;;24.23;15.73;;;;;;;;;;520154;28;1408;-61
2022/12/02 00:00:59;;;;;;;24.23;15.90;;;;;;;;;;519377;28;1404;-61
2022/12/02 00:01:14;;;;;;;26.40;16.27;;;;;;;;;;520648;28;1162;-62
2022/12/02 00:01:31;;;;;;;27.57;16.57;;;;;;;;;;518518;28;1180;-62
2022/12/02 00:01:51;;;;;;;27.13;16.67;;;;;;;;;;521272;28;1335;-61
2022/12/02 00:02:18;;;;;;;26.20;16.15;;;;;;;;;;520954;28;1980;-61
2022/12/02 00:02:34;;;;;;;25.48;15.90;;;;;;;;;;520303;28;1240;-61
2022/12/02 00:02:50;;;;;;;25.03;15.60;;;;;;;;;;521755;28;1510;-61
2022/12/02 00:03:11;;;;;;;24.45;15.38;;;;;;;;;;521496;28;1158;-61
2022/12/02 00:03:28;;;;;;;26.35;16.00;;;;;;;;;;522139;28;1449;-61
2022/12/02 00:03:44;;;;;;;26.05;15.98;;;;;;;;;;522350;28;1494;-61
2022/12/02 00:04:00;;;;;;;25.17;16.02;;;;;;;;;;523789;28;1383;-61
2022/12/02 00:04:35;;;;;;;25.15;15.77;;;;;;;;;;520498;28;1353;-61
2022/12/02 00:04:57;;;;;;;25.35;15.48;;;;;;;;;;521250;28;1517;-61
2022/12/02 00:05:17;;;;;;;25.80;15.82;;;;;;;;;;519282;28;1678;-61
2022/12/02 00:05:33;;;;;;;27.60;16.30;;;;;;;;;;518646;28;1157;-61
2022/12/02 00:05:54;;;;;;;27.75;16.60;;;;;;;;;;520027;28;1360;-61
2022/12/02 00:06:22;;;;;;;25.70;16.08;;;;;;;;;;520270;28;1091;-61
2022/12/02 00:06:37;;;;;;;25.15;15.55;;;;;;;;;;521049;28;1449;-61
2022/12/02 00:06:56;;;;;;;25.43;15.13;;;;;;;;;;522125;28;1641;-61
2022/12/02 00:07:18;;;;;;;24.60;15.43;;;;;;;;;;523042;28;1281;-62
2022/12/02 00:07:33;;;;;;;26.65;16.17;;;;;;;;;;521971;28;2444;-61
2022/12/02 00:07:48;;;;;;;26.38;15.98;;;;;;;;;;522269;28;1355;-61
2022/12/02 00:08:22;;;;;;;24.90;15.70;;;;;;;;;;521238;28;1027;-61
2022/12/02 00:08:37;;;;;;;25.27;15.48;;;;;;;;;;522424;28;1836;-61
2022/12/02 00:08:55;;;;;;;25.60;15.70;;;;;;;;;;521527;28;1403;-61
2022/12/02 00:09:31;;;;;;;25.42;16.02;;;;;;;;;;520242;28;1118;-61
2022/12/02 00:09:46;;;;;;;27.08;16.17;;;;;;;;;;523347;28;1227;-61
2022/12/02 00:10:27;;;;;;;27.60;16.30;;;;;;;;;;521408;28;1303;-61
2022/12/02 00:10:43;;;;;;;26.52;16.23;;;;;;;;;;520568;28;1342;-62
2022/12/02 00:11:01;;;;;;;25.50;15.85;;;;;;;;;;521849;28;1373;-61
2022/12/02 00:11:29;;;;;;;26.42;16.58;;;;;;;;;;522216;28;1914;-61
2022/12/02 00:11:45;;;;;;;27.77;17.25;;;;;;;;;;521439;28;1772;-62
2022/12/02 00:12:24;;;;;;;27.63;17.10;;;;;;;;;;520415;28;1527;-62
2022/12/02 00:12:39;;;;;;;25.63;16.05;;;;;;;;;;520051;28;1164;-61
2022/12/02 00:13:06;;;;;;;25.10;16.17;;;;;;;;;;521207;28;1262;-62
2022/12/02 00:13:25;;;;;;;27.52;16.70;;;;;;;;;;522662;28;1704;-61
2022/12/02 00:13:42;;;;;;;27.40;16.30;;;;;;;;;;521169;28;1566;-61
2022/12/02 00:14:13;;;;;;;26.13;16.27;;;;;;;;;;518851;28;1381;-62
2022/12/02 00:14:33;;;;;;;26.92;16.90;;;;;;;;;;520042;28;1259;-61
2022/12/02 00:14:54;;;;;;;27.48;17.13;;;;;;;;;;521319;28;1129;-61
2022/12/02 00:15:37;;;;;;;27.75;17.27;;;;;;;;;;522497;28;1268;-61
2022/12/02 00:15:58;;;;;;;26.52;16.60;;;;;;;;;;521833;28;1085;-61
2022/12/02 00:16:21;;;;;;;26.08;16.80;;;;;;;;;;523436;28;1575;-62
2022/12/02 00:16:36;;;;;;;28.60;17.15;;;;;;;;;;525225;28;1465;-61
2022/12/02 00:16:52;;;;;;;28.73;17.05;;;;;;;;;;524817;28;1237;-61
2022/12/02 00:17:07;;;;;;;27.40;16.90;;;;;;;;;;525408;28;1251;-61
2022/12/02 00:17:23;;;;;;;28.30;17.20;;;;;;;;;;523408;28;1014;-62
2022/12/02 00:17:38;;;;;;;28.08;17.10;;;;;;;;;;525369;28;1090;-61
2022/12/02 00:17:54;;;;;;;27.57;16.80;;;;;;;;;;524850;28;1089;-61
2022/12/02 00:18:14;;;;;;;27.53;16.83;;;;;;;;;;523800;27;1255;-61
2022/12/02 00:18:30;;;;;;;26.33;16.30;;;;;;;;;;525961;27;1176;-62
2022/12/02 00:18:46;;;;;;;26.73;16.83;;;;;;;;;;521593;28;1218;-62
2022/12/02 00:19:01;;;;;;;26.43;16.97;;;;;;;;;;520774;28;1543;-62
2022/12/02 00:19:17;;;;;;;27.27;17.25;;;;;;;;;;520471;28;1366;-62
2022/12/02 00:19:32;;;;;;;27.63;17.03;;;;;;;;;;522030;28;1232;-62
2022/12/02 00:19:47;;;;;;;27.20;16.77;;;;;;;;;;521604;28;1140;-62
2022/12/02 00:20:03;;;;;;;26.43;16.57;;;;;;;;;;521551;28;1078;-62
2022/12/02 00:20:18;;;;;;;26.50;16.52;;;;;;;;;;519740;28;1219;-62
2022/12/02 00:20:33;;;;;;;27.90;16.97;;;;;;;;;;516828;28;1317;-62
2022/12/02 00:20:49;;;;;;;26.73;16.87;;;;;;;;;;512887;28;1289;-61
2022/12/02 00:21:04;;;;;;;26.58;16.75;;;;;;;;;;518442;28;1515;-62
2022/12/02 00:21:21;;;;;;;26.30;16.83;;;;;;;;;;518098;28;1170;-62
2022/12/02 00:21:36;;;;;;;26.45;16.75;;;;;;;;;;517266;28;1393;-62
2022/12/02 00:21:52;;;;;;;27.50;16.67;;;;;;;;;;515427;28;1167;-62
2022/12/02 00:22:07;;;;;;;27.67;16.75;;;;;;;;;;519359;28;1208;-62
2022/12/02 00:22:22;;;;;;;27.63;16.70;;;;;;;;;;517834;28;1349;-62
2022/12/02 00:22:37;;;;;;;27.37;16.70;;;;;;;;;;521363;28;1208;-63
2022/12/02 00:22:53;;;;;;;27.58;16.52;;;;;;;;;;522735;28;1184;-62
2022/12/02 00:23:09;;;;;;;28.37;16.50;;;;;;;;;;522201;28;1078;-62
2022/12/02 00:23:24;;;;;;;27.42;16.20;;;;;;;;;;521089;28;1170;-62
2022/12/02 00:23:39;;;;;;;26.83;16.37;;;;;;;;;;521119;28;1233;-62
2022/12/02 00:23:55;;;;;;;26.58;16.42;;;;;;;;;;520981;28;1162;-62
2022/12/02 00:24:10;;;;;;;25.53;15.87;;;;;;;;;;519874;28;1168;-62
2022/12/02 00:24:25;;;;;;;26.73;16.13;;;;;;;;;;520398;28;1191;-62
2022/12/02 00:24:41;;;;;;;27.48;16.50;;;;;;;;;;519495;28;1141;-62
2022/12/02 00:24:56;;;;;;;27.43;16.77;;;;;;;;;;520425;28;1156;-62
2022/12/02 00:25:11;;;;;;;26.97;16.73;;;;;;;;;;521639;28;1141;-62
2022/12/02 00:25:26;;;;;;;26.87;16.30;;;;;;;;;;521664;28;1349;-62
2022/12/02 00:25:45;;;;;;;26.80;16.07;;;;;;;;;;518169;28;1538;-62
2022/12/02 00:26:01;;;;;;;26.95;16.50;;;;;;;;;;518197;28;1170;-62
2022/12/02 00:26:16;;;;;;;27.17;16.47;;;;;;;;;;521446;28;1114;-62
2022/12/02 00:26:31;;;;;;;26.60;16.07;;;;;;;;;;521358;28;1141;-62
2022/12/02 00:26:47;;;;;;;26.57;15.90;;;;;;;;;;522069;28;1157;-62
2022/12/02 00:27:02;;;;;;;26.13;16.10;;;;;;;;;;519823;28;1160;-62
2022/12/02 00:27:17;;;;;;;25.15;15.90;;;;;;;;;;520350;28;1153;-62
2022/12/02 00:27:33;;;;;;;25.07;15.90;;;;;;;;;;524580;28;1141;-62
2022/12/02 00:27:48;;;;;;;26.47;16.33;;;;;;;;;;525523;28;1136;-62
2022/12/02 00:28:04;;;;;;;27.13;16.10;;;;;;;;;;522846;28;1456;-62
2022/12/02 00:28:19;;;;;;;25.88;15.75;;;;;;;;;;521461;28;1157;-63
2022/12/02 00:28:35;;;;;;;24.83;15.70;;;;;;;;;;522582;28;1347;-62
2022/12/02 00:28:50;;;;;;;24.70;15.70;;;;;;;;;;523014;28;1058;-62
2022/12/02 00:29:06;;;;;;;26.27;16.08;;;;;;;;;;524509;28;1241;-62
2022/12/02 00:29:21;;;;;;;27.17;15.70;;;;;;;;;;525327;28;1133;-62
2022/12/02 00:29:36;;;;;;;25.27;14.85;;;;;;;;;;521070;28;1621;-62
2022/12/02 00:29:51;;;;;;;24.70;15.20;;;;;;;;;;523418;28;1193;-62
2022/12/02 00:30:07;;;;;;;25.80;15.73;;;;;;;;;;522800;28;1185;-62
2022/12/02 00:30:23;;;;;;;25.42;15.68;;;;;;;;;;522951;28;1208;-62
2022/12/02 00:30:39;;;;;;;26.30;15.80;;;;;;;;;;525185;28;1200;-62
2022/12/02 00:30:55;;;;;;;27.63;16.08;;;;;;;;;;522526;28;1566;-62
2022/12/02 00:31:10;;;;;;;27.20;16.10;;;;;;;;;;525075;28;1910;-62
2022/12/02 00:31:25;;;;;;;25.33;15.65;;;;;;;;;;521067;28;1645;-62
2022/12/02 00:31:40;;;;;;;24.60;15.53;;;;;;;;;;520889;28;1174;-62
2022/12/02 00:31:56;;;;;;;25.07;15.70;;;;;;;;;;521612;28;1197;-62
2022/12/02 00:32:11;;;;;;;25.33;15.93;;;;;;;;;;520425;28;1373;-62
2022/12/02 00:32:26;;;;;;;25.90;15.87;;;;;;;;;;517842;28;1091;-61
2022/12/02 00:32:42;;;;;;;26.33;15.97;;;;;;;;;;518970;28;1314;-62
2022/12/02 00:32:57;;;;;;;27.80;16.58;;;;;;;;;;521015;28;1600;-61
2022/12/02 00:33:14;;;;;;;27.70;16.43;;;;;;;;;;522893;28;1350;-62
2022/12/02 00:33:29;;;;;;;25.77;16.13;;;;;;;;;;523496;28;1220;-62
2022/12/02 00:33:45;;;;;;;26.00;16.60;;;;;;;;;;522677;28;1550;-62
2022/12/02 00:34:00;;;;;;;25.83;16.20;;;;;;;;;;523155;28;1049;-62
2022/12/02 00:34:15;;;;;;;26.00;16.07;;;;;;;;;;522982;28;1012;-62
2022/12/02 00:34:30;;;;;;;26.13;16.30;;;;;;;;;;522947;28;1032;-62
2022/12/02 00:34:46;;;;;;;26.10;16.15;;;;;;;;;;524616;28;1209;-62
2022/12/02 00:35:01;;;;;;;26.83;16.10;;;;;;;;;;522984;28;1169;-62
2022/12/02 00:35:16;;;;;;;27.93;16.47;;;;;;;;;;521603;28;1389;-62
2022/12/02 00:35:32;;;;;;;27.52;16.50;;;;;;;;;;523003;28;1482;-62
2022/12/02 00:35:47;;;;;;;25.90;16.40;;;;;;;;;;523751;28;1291;-62
2022/12/02 00:36:02;;;;;;;26.27;16.40;;;;;;;;;;517139;28;1244;-63
2022/12/02 00:36:18;;;;;;;26.42;16.25;;;;;;;;;;519672;28;1173;-62
2022/12/02 00:36:33;;;;;;;26.30;16.07;;;;;;;;;;520823;28;1585;-62
2022/12/02 00:36:48;;;;;;;26.03;16.07;;;;;;;;;;517952;28;1247;-62
2022/12/02 00:37:03;;;;;;;26.02;16.13;;;;;;;;;;517831;28;1313;-62
2022/12/02 00:37:19;;;;;;;26.27;16.00;;;;;;;;;;517715;28;1092;-62
2022/12/02 00:37:34;;;;;;;25.40;15.73;;;;;;;;;;515043;28;1313;-62
2022/12/02 00:37:50;;;;;;;25.52;16.00;;;;;;;;;;516189;28;1222;-62
2022/12/02 00:38:06;;;;;;;26.20;16.30;;;;;;;;;;518200;28;1031;-62
2022/12/02 00:38:21;;;;;;;26.70;16.20;;;;;;;;;;516186;28;1208;-62
2022/12/02 00:38:36;;;;;;;27.80;16.23;;;;;;;;;;513710;28;1253;-62
2022/12/02 00:38:52;;;;;;;27.07;16.17;;;;;;;;;;516729;28;1233;-61
2022/12/02 00:39:07;;;;;;;25.17;16.15;;;;;;;;;;519283;28;1326;-62
2022/12/02 00:39:23;;;;;;;24.57;15.80;;;;;;;;;;519288;28;1146;-62
2022/12/02 00:39:38;;;;;;;25.60;15.63;;;;;;;;;;521611;28;1055;-62
2022/12/02 00:39:53;;;;;;;27.25;16.00;;;;;;;;;;517793;28;1459;-62
2022/12/02 00:40:09;;;;;;;26.93;16.03;;;;;;;;;;517543;28;1261;-62
2022/12/02 00:40:24;;;;;;;27.38;16.58;;;;;;;;;;520230;28;1236;-62
2022/12/02 00:40:40;;;;;;;27.63;16.60;;;;;;;;;;522591;28;1334;-62
2022/12/02 00:40:55;;;;;;;26.73;16.20;;;;;;;;;;523085;28;1010;-62
2022/12/02 00:41:10;;;;;;;26.00;16.10;;;;;;;;;;521863;28;1097;-62
2022/12/02 00:41:26;;;;;;;24.60;15.40;;;;;;;;;;520394;28;1215;-62
2022/12/02 00:41:41;;;;;;;25.40;15.53;;;;;;;;;;523808;28;1453;-62
2022/12/02 00:41:57;;;;;;;24.73;15.68;;;;;;;;;;523104;28;1290;-62
2022/12/02 00:42:12;;;;;;;24.33;15.25;;;;;;;;;;524528;28;1153;-62
2022/12/02 00:42:27;;;;;;;24.63;15.23;;;;;;;;;;523318;28;1184;-62
2022/12/02 00:42:42;;;;;;;24.73;15.43;;;;;;;;;;522011;28;1051;-62
2022/12/02 00:46:30;;;;;;;26.60;15.97;;;;;;;;;;522557;28;1205;-62
2022/12/02 00:46:32;;;;;;;27.95;16.20;;;;;;;;;;524505;28;1309;-63
2022/12/02 00:46:47;;;;;;;26.25;15.70;;;;;;;;;;522256;28;1086;-62
2022/12/02 00:47:02;;;;;;;26.90;15.83;;;;;;;;;;520962;28;1200;-62
2022/12/02 00:47:17;;;;;;;27.35;16.13;;;;;;;;;;523227;28;1172;-62
2022/12/02 00:47:33;;;;;;;26.90;16.13;;;;;;;;;;523354;28;1142;-62
2022/12/02 00:47:48;;;;;;;25.80;15.90;;;;;;;;;;523035;28;1225;-62
2022/12/02 00:48:04;;;;;;;26.50;15.90;;;;;;;;;;522482;28;1102;-62
2022/12/02 00:48:19;;;;;;;27.42;16.05;;;;;;;;;;521134;28;1127;-62
2022/12/02 00:48:34;;;;;;;26.10;15.93;;;;;;;;;;521411;28;1258;-62
2022/12/02 00:48:50;;;;;;;27.05;16.13;;;;;;;;;;522541;28;1750;-62
2022/12/02 00:49:07;;;;;;;27.30;16.23;;;;;;;;;;522043;28;1537;-62
2022/12/02 00:49:23;;;;;;;26.20;15.98;;;;;;;;;;523336;28;1223;-62
2022/12/02 00:49:38;;;;;;;26.60;16.00;;;;;;;;;;523530;28;1284;-62
2022/12/02 00:49:53;;;;;;;26.33;15.93;;;;;;;;;;524491;28;1132;-62
2022/12/02 00:50:09;;;;;;;26.27;16.10;;;;;;;;;;523959;28;1145;-62
2022/12/02 00:50:25;;;;;;;25.75;16.10;;;;;;;;;;522464;28;1122;-62
2022/12/02 00:50:40;;;;;;;25.70;16.03;;;;;;;;;;522995;28;1139;-62
2022/12/02 00:50:55;;;;;;;26.02;15.88;;;;;;;;;;521358;28;1443;-62
2022/12/02 00:51:10;;;;;;;26.37;16.03;;;;;;;;;;522372;28;1972;-62
2022/12/02 00:51:26;;;;;;;26.43;16.13;;;;;;;;;;524883;28;1125;-61
2022/12/02 00:51:43;;;;;;;27.33;16.40;;;;;;;;;;522503;28;1336;-62
2022/12/02 00:51:58;;;;;;;28.15;16.42;;;;;;;;;;521960;28;1151;-62
2022/12/02 00:52:13;;;;;;;27.50;15.90;;;;;;;;;;523335;28;1318;-62
2022/12/02 00:52:29;;;;;;;26.97;16.13;;;;;;;;;;523650;28;1216;-62
2022/12/02 00:52:44;;;;;;;25.93;16.33;;;;;;;;;;521448;28;1441;-63
2022/12/02 00:52:59;;;;;;;25.42;16.20;;;;;;;;;;522287;28;1075;-62
2022/12/02 00:53:14;;;;;;;26.27;15.93;;;;;;;;;;521162;28;1314;-62
2022/12/02 00:53:30;;;;;;;27.57;15.83;;;;;;;;;;518902;28;1173;-62
2022/12/02 00:53:45;;;;;;;26.85;16.20;;;;;;;;;;519596;28;1410;-62
2022/12/02 00:54:01;;;;;;;25.30;15.63;;;;;;;;;;519194;28;1059;-61
2022/12/02 00:54:16;;;;;;;26.80;15.63;;;;;;;;;;519962;28;1409;-62
2022/12/02 00:54:31;;;;;;;26.63;15.53;;;;;;;;;;518749;28;1075;-62
2022/12/02 00:54:46;;;;;;;25.70;15.20;;;;;;;;;;519092;28;1215;-62
2022/12/02 00:55:03;;;;;;;25.80;15.45;;;;;;;;;;519472;28;1505;-62
2022/12/02 00:55:18;;;;;;;25.23;15.38;;;;;;;;;;520432;28;1128;-62
2022/12/02 00:55:33;;;;;;;24.70;15.03;;;;;;;;;;522429;28;1248;-62
2022/12/02 00:55:49;;;;;;;24.20;15.30;;;;;;;;;;522454;28;1205;-62
2022/12/02 00:56:04;;;;;;;24.97;15.70;;;;;;;;;;520241;28;1221;-62
2022/12/02 00:56:20;;;;;;;25.57;15.73;;;;;;;;;;522749;28;1161;-62
2022/12/02 00:56:36;;;;;;;27.40;15.82;;;;;;;;;;521319;28;1447;-62
2022/12/02 00:56:51;;;;;;;26.33;15.40;;;;;;;;;;522873;28;1138;-62
2022/12/02 00:57:06;;;;;;;24.60;15.77;;;;;;;;;;521842;28;1165;-62
2022/12/02 00:57:21;;;;;;;25.17;16.10;;;;;;;;;;520011;28;1213;-63
2022/12/02 00:57:37;;;;;;;25.50;16.00;;;;;;;;;;521189;28;1182;-61
2022/12/02 00:57:52;;;;;;;26.30;16.40;;;;;;;;;;521584;28;1185;-62
2022/12/02 00:58:07;;;;;;;25.60;16.33;;;;;;;;;;520840;28;1475;-62
2022/12/02 00:58:22;;;;;;;25.17;16.17;;;;;;;;;;521501;28;1462;-62
2022/12/02 00:58:38;;;;;;;25.60;16.05;;;;;;;;;;522418;28;1265;-62
2022/12/02 00:58:53;;;;;;;26.73;16.17;;;;;;;;;;522794;28;1113;-62
2022/12/02 00:59:08;;;;;;;26.80;16.57;;;;;;;;;;520014;28;1196;-62
2022/12/02 00:59:24;;;;;;;25.67;16.23;;;;;;;;;;519212;28;1167;-62
2022/12/02 00:59:39;;;;;;;25.83;16.27;;;;;;;;;;518998;28;1117;-62
2022/12/02 00:59:54;;;;;;;25.77;16.30;;;;;;;;;;518959;28;1149;-62
2022/12/02 01:00:11;;;;;;;26.17;15.98;;;;;;;;;;517313;28;1142;-62
2022/12/02 01:00:26;;;;;;;26.00;15.73;;;;;;;;;;516104;28;1271;-62
2022/12/02 01:00:41;;;;;;;25.10;15.20;;;;;;;;;;517347;28;1150;-62
2022/12/02 01:00:57;;;;;;;25.83;15.77;;;;;;;;;;517591;28;1158;-62
2022/12/02 01:01:12;;;;;;;26.00;16.27;;;;;;;;;;517525;28;1330;-62
2022/12/02 01:01:28;;;;;;;26.50;16.27;;;;;;;;;;517895;28;1130;-62
2022/12/02 01:01:43;;;;;;;27.05;16.27;;;;;;;;;;518053;28;1282;-62
2022/12/02 01:01:59;;;;;;;26.97;16.17;;;;;;;;;;517155;28;1191;-62
2022/12/02 01:02:14;;;;;;;25.80;15.97;;;;;;;;;;520033;28;1150;-62
2022/12/02 01:02:29;;;;;;;25.25;15.70;;;;;;;;;;522027;28;1384;-62
2022/12/02 01:02:45;;;;;;;25.80;15.87;;;;;;;;;;521213;28;1403;-62
2022/12/02 01:03:00;;;;;;;25.90;16.00;;;;;;;;;;519084;28;1633;-62
2022/12/02 01:03:15;;;;;;;25.33;15.90;;;;;;;;;;521290;28;975;-62
2022/12/02 01:03:31;;;;;;;25.30;15.70;;;;;;;;;;520644;28;1154;-62
2022/12/02 01:03:46;;;;;;;26.45;16.02;;;;;;;;;;520722;28;1112;-62
2022/12/02 01:04:02;;;;;;;26.47;16.20;;;;;;;;;;522729;28;1035;-62
2022/12/02 01:04:17;;;;;;;26.73;16.60;;;;;;;;;;516817;28;1489;-62
2022/12/02 01:04:32;;;;;;;27.27;16.67;;;;;;;;;;519913;28;1400;-62
2022/12/02 01:04:48;;;;;;;27.13;16.30;;;;;;;;;;522661;28;1270;-62
2022/12/02 01:05:03;;;;;;;27.02;16.52;;;;;;;;;;524151;28;1042;-62
2022/12/02 01:05:19;;;;;;;27.23;16.13;;;;;;;;;;520972;28;1250;-62
2022/12/02 01:05:34;;;;;;;26.83;15.80;;;;;;;;;;518999;28;1181;-62
2022/12/02 01:05:49;;;;;;;27.20;16.27;;;;;;;;;;518758;28;1211;-61
2022/12/02 01:06:04;;;;;;;28.03;16.60;;;;;;;;;;521493;28;1145;-62
2022/12/02 01:06:20;;;;;;;27.33;16.60;;;;;;;;;;519037;28;1587;-62
2022/12/02 01:06:35;;;;;;;27.03;16.57;;;;;;;;;;517690;28;1184;-62
2022/12/02 01:06:50;;;;;;;26.80;16.27;;;;;;;;;;514839;28;1253;-62
2022/12/02 01:07:06;;;;;;;26.63;16.40;;;;;;;;;;515620;28;1234;-62
2022/12/02 01:07:21;;;;;;;26.83;16.60;;;;;;;;;;517462;28;1333;-62
2022/12/02 01:07:36;;;;;;;27.03;16.33;;;;;;;;;;517458;28;1162;-62
2022/12/02 01:07:52;;;;;;;26.77;16.33;;;;;;;;;;517974;28;1075;-62
2022/12/02 01:08:07;;;;;;;27.40;16.30;;;;;;;;;;520633;28;1053;-62
2022/12/02 01:08:26;;;;;;;27.77;16.02;;;;;;;;;;519100;28;1025;-62
2022/12/02 01:08:41;;;;;;;26.83;16.20;;;;;;;;;;523310;28;1040;-62
2022/12/02 01:08:56;;;;;;;27.13;16.47;;;;;;;;;;524722;28;1357;-62
2022/12/02 01:09:12;;;;;;;26.48;16.05;;;;;;;;;;523520;28;1168;-62
2022/12/02 01:09:27;;;;;;;26.10;16.27;;;;;;;;;;522093;28;1411;-62
2022/12/02 01:09:42;;;;;;;26.37;16.40;;;;;;;;;;522351;28;1099;-62
2022/12/02 01:09:57;;;;;;;27.00;16.30;;;;;;;;;;525150;28;1116;-62
2022/12/02 01:10:13;;;;;;;27.70;16.63;;;;;;;;;;523180;28;1070;-62
2022/12/02 01:10:28;;;;;;;26.60;16.47;;;;;;;;;;525061;28;1137;-62
2022/12/02 01:10:43;;;;;;;26.97;16.30;;;;;;;;;;521600;28;1212;-62
2022/12/02 01:10:59;;;;;;;27.08;16.25;;;;;;;;;;524987;28;1219;-62
2022/12/02 01:11:14;;;;;;;26.17;16.17;;;;;;;;;;521442;28;1991;-62
2022/12/02 01:11:30;;;;;;;26.05;15.82;;;;;;;;;;519312;28;1090;-62
2022/12/02 01:11:45;;;;;;;25.70;15.87;;;;;;;;;;520376;28;995;-62
2022/12/02 01:12:01;;;;;;;26.17;16.02;;;;;;;;;;521152;28;1212;-64
2022/12/02 01:12:16;;;;;;;27.73;16.43;;;;;;;;;;521661;28;1149;-62
2022/12/02 01:12:31;;;;;;;30.27;16.90;;;;;;;;;;523943;28;1216;-62
2022/12/02 01:12:46;;;;;;;28.90;16.63;;;;;;;;;;523981;28;1101;-62
2022/12/02 01:13:02;;;;;;;26.23;16.17;;;;;;;;;;522304;28;1409;-62
2022/12/02 01:13:17;;;;;;;25.97;16.00;;;;;;;;;;524183;28;1073;-62
2022/12/02 01:13:32;;;;;;;25.35;15.90;;;;;;;;;;521634;28;1649;-62
2022/12/02 01:13:48;;;;;;;25.47;15.90;;;;;;;;;;523786;28;1129;-62
2022/12/02 01:14:03;;;;;;;25.30;15.90;;;;;;;;;;523191;28;1359;-62
2022/12/02 01:14:19;;;;;;;25.07;15.60;;;;;;;;;;524471;28;1077;-62
2022/12/02 01:14:34;;;;;;;25.77;15.82;;;;;;;;;;524342;28;1038;-62
2022/12/02 01:14:50;;;;;;;25.37;15.97;;;;;;;;;;520758;28;1248;-62
2022/12/02 01:15:06;;;;;;;26.63;15.68;;;;;;;;;;521993;28;1271;-62
2022/12/02 01:15:21;;;;;;;28.03;15.63;;;;;;;;;;524472;28;1089;-62
2022/12/02 01:15:36;;;;;;;26.45;15.43;;;;;;;;;;523860;28;1229;-62
2022/12/02 01:15:52;;;;;;;26.53;15.77;;;;;;;;;;523595;28;1219;-62
2022/12/02 01:16:08;;;;;;;27.15;16.20;;;;;;;;;;520791;28;1300;-62
2022/12/02 01:16:23;;;;;;;27.02;15.95;;;;;;;;;;524095;28;1142;-61
2022/12/02 01:16:38;;;;;;;26.60;15.83;;;;;;;;;;524876;28;1233;-62
2022/12/02 01:16:53;;;;;;;27.27;16.57;;;;;;;;;;522631;28;1168;-62
2022/12/02 01:17:09;;;;;;;26.93;16.63;;;;;;;;;;524314;28;1306;-62
2022/12/02 01:17:24;;;;;;;26.27;16.20;;;;;;;;;;521083;28;989;-62
2022/12/02 01:17:39;;;;;;;25.50;15.87;;;;;;;;;;522594;28;1446;-62
2022/12/02 01:17:54;;;;;;;25.73;16.10;;;;;;;;;;520940;28;1170;-62
2022/12/02 01:18:10;;;;;;;26.30;16.30;;;;;;;;;;521346;28;1119;-62
2022/12/02 01:18:25;;;;;;;25.60;16.03;;;;;;;;;;522747;28;1017;-62
2022/12/02 01:18:41;;;;;;;26.67;16.35;;;;;;;;;;518638;28;1299;-62
2022/12/02 01:18:56;;;;;;;26.37;16.33;;;;;;;;;;517930;28;1209;-62
2022/12/02 01:19:11;;;;;;;26.70;16.33;;;;;;;;;;521293;28;1376;-62
2022/12/02 01:19:26;;;;;;;27.17;16.07;;;;;;;;;;521934;28;1282;-62
2022/12/02 01:19:42;;;;;;;25.85;15.60;;;;;;;;;;520218;28;1214;-62
2022/12/02 01:19:57;;;;;;;25.70;15.97;;;;;;;;;;517914;28;1387;-62
2022/12/02 01:20:12;;;;;;;26.20;16.23;;;;;;;;;;516447;28;1263;-62
2022/12/02 01:20:28;;;;;;;26.38;15.95;;;;;;;;;;518167;28;1044;-62
2022/12/02 01:20:43;;;;;;;27.43;16.27;;;;;;;;;;519444;28;1314;-62
2022/12/02 01:20:59;;;;;;;27.27;16.52;;;;;;;;;;521831;28;1095;-62
2022/12/02 01:21:14;;;;;;;24.83;15.83;;;;;;;;;;521191;28;1305;-62
2022/12/02 01:21:29;;;;;;;26.07;15.77;;;;;;;;;;521083;28;1234;-62
2022/12/02 01:21:45;;;;;;;28.65;16.52;;;;;;;;;;523107;28;1145;-62
2022/12/02 01:22:00;;;;;;;28.53;16.73;;;;;;;;;;523756;28;1090;-62
2022/12/02 01:22:15;;;;;;;27.53;16.40;;;;;;;;;;521965;28;1360;-62
2022/12/02 01:22:30;;;;;;;27.45;16.45;;;;;;;;;;520562;28;1082;-62
2022/12/02 01:22:46;;;;;;;27.07;16.60;;;;;;;;;;521566;28;982;-62
2022/12/02 01:23:01;;;;;;;27.37;16.63;;;;;;;;;;519188;28;1334;-62
2022/12/02 01:23:16;;;;;;;28.00;16.90;;;;;;;;;;520527;28;1652;-62
2022/12/02 01:23:32;;;;;;;27.67;16.60;;;;;;;;;;519243;28;1169;-62
2022/12/02 01:23:47;;;;;;;27.60;16.13;;;;;;;;;;517034;28;1203;-62
2022/12/02 01:24:02;;;;;;;29.05;16.20;;;;;;;;;;518876;28;1398;-62
2022/12/02 01:24:18;;;;;;;29.17;16.60;;;;;;;;;;517871;28;1241;-62
2022/12/02 01:24:33;;;;;;;26.50;16.43;;;;;;;;;;518927;28;1194;-62
2022/12/02 01:24:48;;;;;;;26.42;15.98;;;;;;;;;;517057;28;1286;-62
2022/12/02 01:25:04;;;;;;;26.80;15.87;;;;;;;;;;516955;28;1155;-62
2022/12/02 01:25:19;;;;;;;27.17;16.13;;;;;;;;;;518259;28;1096;-62
2022/12/02 01:25:35;;;;;;;28.03;16.40;;;;;;;;;;518392;28;1208;-62
2022/12/02 01:25:50;;;;;;;27.08;16.20;;;;;;;;;;518168;28;1329;-62
2022/12/02 01:26:05;;;;;;;25.43;15.60;;;;;;;;;;516387;28;1232;-62
2022/12/02 01:26:21;;;;;;;26.03;16.17;;;;;;;;;;517329;28;1191;-62
2022/12/02 01:26:36;;;;;;;26.75;16.55;;;;;;;;;;520290;28;1495;-62
2022/12/02 01:26:51;;;;;;;26.77;16.50;;;;;;;;;;519772;28;1208;-62
2022/12/02 01:27:07;;;;;;;26.00;16.50;;;;;;;;;;517406;28;1212;-62
2022/12/02 01:27:23;;;;;;;26.05;16.27;;;;;;;;;;518881;28;1435;-62
2022/12/02 01:27:38;;;;;;;27.10;16.50;;;;;;;;;;517390;28;1130;-62
2022/12/02 01:27:56;;;;;;;27.63;16.60;;;;;;;;;;521606;28;1171;-62
2022/12/02 01:28:15;;;;;;;27.40;16.55;;;;;;;;;;520612;28;1056;-62
2022/12/02 01:28:30;;;;;;;27.15;16.60;;;;;;;;;;519253;28;1192;-62
2022/12/02 01:28:45;;;;;;;27.63;16.67;;;;;;;;;;519460;28;1198;-62
2022/12/02 01:29:01;;;;;;;28.52;16.65;;;;;;;;;;519843;28;1114;-62
2022/12/02 01:29:16;;;;;;;27.87;16.47;;;;;;;;;;522359;28;1236;-62
2022/12/02 01:29:31;;;;;;;26.57;16.53;;;;;;;;;;521179;28;1117;-62
2022/12/02 01:29:47;;;;;;;26.83;16.30;;;;;;;;;;520410;28;1334;-62
2022/12/02 01:30:03;;;;;;;27.00;16.05;;;;;;;;;;521051;28;1036;-62
2022/12/02 01:30:18;;;;;;;26.75;16.48;;;;;;;;;;519874;28;1094;-62
2022/12/02 01:30:33;;;;;;;25.37;16.20;;;;;;;;;;521384;28;1209;-62
2022/12/02 01:30:49;;;;;;;25.88;16.15;;;;;;;;;;520726;28;1358;-62
2022/12/02 01:31:04;;;;;;;26.77;16.50;;;;;;;;;;521168;28;1162;-62
2022/12/02 01:31:20;;;;;;;25.90;16.13;;;;;;;;;;521226;28;1913;-62
2022/12/02 01:31:35;;;;;;;26.52;16.10;;;;;;;;;;520683;28;1177;-62
2022/12/02 01:31:50;;;;;;;25.87;15.87;;;;;;;;;;522593;28;1094;-61
2022/12/02 01:32:05;;;;;;;25.15;15.90;;;;;;;;;;519375;28;1138;-62
2022/12/02 01:32:22;;;;;;;27.23;16.10;;;;;;;;;;521516;28;1311;-62
2022/12/02 01:32:37;;;;;;;28.92;16.25;;;;;;;;;;520917;28;1022;-62
2022/12/02 01:32:52;;;;;;;28.88;16.77;;;;;;;;;;522444;28;1033;-62
2022/12/02 01:33:08;;;;;;;27.17;16.93;;;;;;;;;;522654;28;1205;-62
2022/12/02 01:33:23;;;;;;;26.73;16.77;;;;;;;;;;521745;28;1368;-62
2022/12/02 01:33:39;;;;;;;28.23;16.80;;;;;;;;;;522919;28;1039;-62
2022/12/02 01:33:54;;;;;;;28.00;16.50;;;;;;;;;;521301;28;1341;-62
2022/12/02 01:34:09;;;;;;;26.85;16.50;;;;;;;;;;521697;28;1335;-62
2022/12/02 01:34:25;;;;;;;27.27;16.60;;;;;;;;;;523630;28;1241;-62
2022/12/02 01:34:41;;;;;;;27.40;16.27;;;;;;;;;;522428;28;1025;-62
2022/12/02 01:34:56;;;;;;;27.40;16.25;;;;;;;;;;524980;28;958;-62
2022/12/02 01:35:12;;;;;;;26.92;16.33;;;;;;;;;;523293;28;1149;-62
2022/12/02 01:35:27;;;;;;;26.30;16.20;;;;;;;;;;522244;28;1070;-62
2022/12/02 01:35:42;;;;;;;26.05;15.73;;;;;;;;;;520588;28;1313;-62
2022/12/02 01:35:57;;;;;;;26.27;16.07;;;;;;;;;;524669;28;1172;-63
2022/12/02 01:36:13;;;;;;;26.47;16.13;;;;;;;;;;524507;28;959;-62
2022/12/02 01:36:28;;;;;;;27.33;16.33;;;;;;;;;;521469;28;1372;-62
2022/12/02 01:36:43;;;;;;;26.58;16.48;;;;;;;;;;519797;28;1095;-62
2022/12/02 01:36:58;;;;;;;26.90;16.47;;;;;;;;;;519965;28;1177;-62
2022/12/02 01:37:14;;;;;;;28.00;16.67;;;;;;;;;;519645;28;1205;-62
2022/12/02 01:37:29;;;;;;;27.10;16.73;;;;;;;;;;519702;28;1408;-62
2022/12/02 01:37:45;;;;;;;25.73;16.13;;;;;;;;;;521390;28;1030;-62
2022/12/02 01:38:00;;;;;;;26.10;16.02;;;;;;;;;;520988;28;1390;-62
2022/12/02 01:38:15;;;;;;;28.43;17.30;;;;;;;;;;516295;28;1392;-62
2022/12/02 01:38:31;;;;;;;28.67;17.23;;;;;;;;;;518857;28;1447;-62
2022/12/02 01:38:46;;;;;;;27.38;16.30;;;;;;;;;;519117;28;1169;-62
2022/12/02 01:39:01;;;;;;;26.27;16.30;;;;;;;;;;519113;28;1044;-62
2022/12/02 01:39:16;;;;;;;27.90;16.50;;;;;;;;;;520095;28;1345;-62
2022/12/02 01:39:32;;;;;;;28.10;16.53;;;;;;;;;;519131;28;1205;-62
2022/12/02 01:39:47;;;;;;;26.17;16.43;;;;;;;;;;518235;28;1143;-62
2022/12/02 01:40:05;;;;;;;26.87;16.50;;;;;;;;;;519785;28;1270;-62
2022/12/02 01:40:20;;;;;;;27.33;16.20;;;;;;;;;;524055;28;1206;-62
2022/12/02 01:40:36;;;;;;;27.37;16.20;;;;;;;;;;523338;28;1262;-62